Time;durP1;ratioP1;P1;durP2;ratioP2;P2;SDS_P1;SDS_P2;PMS_P1;PMS_P2;Temp;Humidity;BMP_temperature;BMP_pressure;BME280_temperature;BME280_humidity;BME280_pressure;Samples;Min_cycle;Max_cycle;Signal;HPM_P1;HPM_P2
2023/08/15 00:01:49;;;;;;;8.88;5.20;;;19.30;91.10;;;;;;5036338;28;20412;-66
2023/08/15 00:04:15;;;;;;;10.15;5.38;;;19.30;91.20;;;;;;5032102;28;20040;-66
2023/08/15 00:06:40;;;;;;;10.25;5.10;;;19.30;91.40;;;;;;5034354;28;20117;-66
2023/08/15 00:09:06;;;;;;;10.23;5.50;;;19.30;91.70;;;;;;5027466;28;20445;-66
2023/08/15 00:11:31;;;;;;;16.45;5.45;;;19.20;91.70;;;;;;5032920;28;20044;-66
2023/08/15 00:13:57;;;;;;;8.48;4.95;;;19.30;92.10;;;;;;5030827;28;20413;-67
2023/08/15 00:16:22;;;;;;;13.10;5.70;;;19.30;92.10;;;;;;5025187;28;20065;-66
2023/08/15 00:18:48;;;;;;;8.82;4.82;;;19.30;92.10;;;;;;5020920;28;20041;-65
2023/08/15 00:21:13;;;;;;;11.77;5.50;;;19.30;92.20;;;;;;5023366;28;20547;-66
2023/08/15 00:23:39;;;;;;;10.35;5.15;;;19.30;92.30;;;;;;5024332;28;20104;-66
2023/08/15 00:26:04;;;;;;;11.73;5.50;;;19.40;92.50;;;;;;5023721;28;20052;-66
2023/08/15 00:28:30;;;;;;;18.23;5.50;;;19.40;92.20;;;;;;5030164;28;20116;-68
2023/08/15 00:30:55;;;;;;;9.27;5.50;;;19.40;92.40;;;;;;5031242;28;20489;-66
2023/08/15 00:33:21;;;;;;;10.52;5.40;;;19.30;92.40;;;;;;5029924;28;20462;-66
2023/08/15 00:35:46;;;;;;;11.25;5.88;;;19.30;92.70;;;;;;5028288;28;20474;-65
2023/08/15 00:38:12;;;;;;;7.18;5.03;;;19.30;92.90;;;;;;5033555;28;20033;-66
2023/08/15 00:40:40;;;;;;;8.52;5.57;;;19.30;92.90;;;;;;5031691;28;20109;-67
2023/08/15 00:43:06;;;;;;;10.07;5.65;;;19.40;92.80;;;;;;5033164;28;20036;-66
2023/08/15 00:45:34;;;;;;;11.30;5.75;;;19.50;92.90;;;;;;5023488;28;20437;-65
2023/08/15 00:48:00;;;;;;;13.57;6.05;;;19.50;92.90;;;;;;5035042;28;20080;-66
2023/08/15 00:50:26;;;;;;;9.05;5.35;;;19.60;93.00;;;;;;5028701;28;20109;-66
2023/08/15 00:52:52;;;;;;;11.65;5.38;;;19.70;92.80;;;;;;5025563;28;20030;-66
2023/08/15 00:55:18;;;;;;;9.00;5.53;;;19.70;92.60;;;;;;5033732;28;20032;-68
2023/08/15 00:57:44;;;;;;;9.38;5.68;;;19.80;92.30;;;;;;5029824;28;20034;-66
2023/08/15 01:00:11;;;;;;;14.77;5.35;;;19.70;92.40;;;;;;5027084;28;20052;-66
2023/08/15 01:02:37;;;;;;;12.25;5.90;;;19.70;92.60;;;;;;5024231;28;20543;-67
2023/08/15 01:05:04;;;;;;;11.48;5.95;;;19.70;92.70;;;;;;5030642;28;20062;-67
2023/08/15 01:07:29;;;;;;;11.18;5.60;;;19.60;92.90;;;;;;5017174;28;20029;-67
2023/08/15 01:09:55;;;;;;;9.32;6.03;;;19.60;93.40;;;;;;5030864;28;20187;-66
2023/08/15 01:12:31;;;;;;;10.45;6.55;;;19.50;93.60;;;;;;5027431;28;20029;-66
2023/08/15 01:15:03;;;;;;;16.52;6.55;;;19.50;93.90;;;;;;5028123;28;20029;-66
2023/08/15 01:17:36;;;;;;;10.73;6.47;;;19.50;94.20;;;;;;5021041;28;20029;-66
2023/08/15 01:20:10;;;;;;;13.05;6.53;;;19.50;94.00;;;;;;5026214;28;20086;-66
2023/08/15 01:22:40;;;;;;;15.68;6.25;;;19.50;94.00;;;;;;5028031;28;20036;-66
2023/08/15 01:25:05;;;;;;;11.87;5.90;;;19.40;94.10;;;;;;5020904;28;20180;-68
2023/08/15 01:27:31;;;;;;;9.25;6.55;;;19.30;94.30;;;;;;5030222;28;20124;-66
2023/08/15 01:29:56;;;;;;;9.43;6.35;;;19.30;94.50;;;;;;5022107;28;20033;-67
2023/08/15 01:32:50;;;;;;;10.75;6.72;;;19.30;94.70;;;;;;5028701;28;20041;-66
2023/08/15 01:35:34;;;;;;;14.52;6.72;;;19.30;95.00;;;;;;5025548;28;20017;-66
2023/08/15 01:38:09;;;;;;;15.02;7.00;;;19.20;95.40;;;;;;5028026;28;20542;-66
2023/08/15 01:40:37;;;;;;;13.10;6.40;;;19.20;95.40;;;;;;5038085;28;20021;-67
2023/08/15 01:43:04;;;;;;;13.60;6.80;;;19.20;95.70;;;;;;5037219;28;20056;-66
2023/08/15 01:45:31;;;;;;;11.43;7.40;;;19.20;95.70;;;;;;5020112;28;20747;-66
2023/08/15 01:47:57;;;;;;;11.60;7.55;;;19.20;96.00;;;;;;5036004;28;20449;-67
2023/08/15 01:50:23;;;;;;;16.52;7.38;;;19.30;95.90;;;;;;5023928;28;20402;-66
2023/08/15 01:52:48;;;;;;;14.57;7.18;;;19.20;95.80;;;;;;5025928;28;20184;-66
2023/08/15 01:55:14;;;;;;;12.80;7.25;;;19.10;95.70;;;;;;5038442;28;20049;-67
2023/08/15 01:57:39;;;;;;;12.98;6.80;;;19.10;95.80;;;;;;5026888;28;20481;-66
2023/08/15 02:00:05;;;;;;;10.77;7.35;;;19.10;96.00;;;;;;5020515;28;20037;-66
2023/08/15 02:02:31;;;;;;;10.15;6.68;;;19.00;96.10;;;;;;5040788;28;20385;-66
2023/08/15 02:05:01;;;;;;;12.68;7.35;;;19.00;96.30;;;;;;5038545;28;20033;-67
2023/08/15 02:07:27;;;;;;;12.65;7.57;;;19.10;96.40;;;;;;5025125;28;20036;-66
2023/08/15 02:09:52;;;;;;;12.48;7.72;;;19.10;96.60;;;;;;5032288;28;20025;-66
2023/08/15 02:12:18;;;;;;;12.63;7.93;;;19.10;96.70;;;;;;5025835;28;20037;-67
2023/08/15 02:14:43;;;;;;;17.08;7.53;;;19.10;96.60;;;;;;5033875;28;20061;-66
2023/08/15 02:17:09;;;;;;;11.05;7.25;;;19.00;96.60;;;;;;5027366;28;20474;-67
2023/08/15 02:19:34;;;;;;;14.27;7.70;;;19.00;96.60;;;;;;5035150;28;20389;-67
2023/08/15 02:22:00;;;;;;;18.83;8.05;;;19.00;96.60;;;;;;5025744;28;20083;-68
2023/08/15 02:24:25;;;;;;;13.60;7.43;;;19.00;96.90;;;;;;5028324;28;20064;-67
2023/08/15 02:26:51;;;;;;;12.70;8.00;;;19.20;97.10;;;;;;5019777;28;20091;-67
2023/08/15 02:29:16;;;;;;;14.63;8.23;;;19.50;97.10;;;;;;5027443;28;20042;-67
2023/08/15 02:31:47;;;;;;;11.57;8.27;;;19.50;96.70;;;;;;5018871;28;20101;-67
2023/08/15 02:34:15;;;;;;;13.43;7.68;;;19.70;96.50;;;;;;5034690;28;20044;-67
2023/08/15 02:36:41;;;;;;;11.45;7.18;;;19.70;96.30;;;;;;5019593;28;20033;-68
2023/08/15 02:39:06;;;;;;;14.68;7.28;;;19.70;96.20;;;;;;5027081;28;20042;-67
2023/08/15 02:41:32;;;;;;;12.98;6.63;;;19.70;96.20;;;;;;5018694;28;20045;-67
2023/08/15 02:43:57;;;;;;;13.50;6.38;;;19.80;96.10;;;;;;5034038;28;20081;-67
2023/08/15 02:46:25;;;;;;;10.18;6.60;;;19.80;96.10;;;;;;5022305;28;20108;-68
2023/08/15 02:48:51;;;;;;;12.05;6.28;;;19.80;95.90;;;;;;5025401;28;20022;-68
2023/08/15 02:51:16;;;;;;;11.65;6.53;;;19.80;96.00;;;;;;5028020;28;20420;-67
2023/08/15 02:53:41;;;;;;;12.02;6.72;;;19.90;95.80;;;;;;5036926;28;20029;-69
2023/08/15 02:56:07;;;;;;;11.98;5.63;;;19.90;95.70;;;;;;5024381;28;20548;-67
2023/08/15 02:58:32;;;;;;;9.18;5.85;;;19.90;95.70;;;;;;5035354;28;20036;-67
2023/08/15 03:00:58;;;;;;;11.02;6.03;;;20.00;95.60;;;;;;5023653;28;20037;-67
2023/08/15 03:03:25;;;;;;;10.82;6.35;;;20.00;95.60;;;;;;5039987;28;20032;-67
2023/08/15 03:05:51;;;;;;;12.10;6.20;;;20.00;95.50;;;;;;5031046;28;20029;-67
2023/08/15 03:08:16;;;;;;;11.50;6.45;;;20.00;95.40;;;;;;5033239;28;20147;-67
2023/08/15 03:10:42;;;;;;;13.90;6.43;;;20.00;95.40;;;;;;5022613;28;20033;-67
2023/08/15 03:13:07;;;;;;;11.30;6.32;;;20.00;95.40;;;;;;5029569;28;20030;-67
2023/08/15 03:15:35;;;;;;;10.88;6.10;;;20.00;95.30;;;;;;5044453;28;20033;-67
2023/08/15 03:18:01;;;;;;;10.77;5.95;;;20.00;95.30;;;;;;5037739;28;20033;-67
2023/08/15 03:20:26;;;;;;;9.30;5.80;;;20.00;95.40;;;;;;5030418;28;20492;-68
2023/08/15 03:22:52;;;;;;;11.02;5.97;;;20.00;95.30;;;;;;5027800;28;20034;-67
2023/08/15 03:25:17;;;;;;;8.85;5.55;;;20.00;95.40;;;;;;5028214;28;20478;-67
2023/08/15 03:27:43;;;;;;;10.75;5.95;;;20.00;95.40;;;;;;5018059;28;20026;-69
2023/08/15 03:30:09;;;;;;;11.30;6.20;;;20.00;95.40;;;;;;5019312;28;20548;-68
2023/08/15 03:32:34;;;;;;;14.40;6.95;;;20.00;95.40;;;;;;5028077;28;20061;-68
2023/08/15 03:35:00;;;;;;;10.07;6.55;;;19.90;95.40;;;;;;5024762;28;20109;-68
2023/08/15 03:37:26;;;;;;;9.77;5.97;;;19.90;95.40;;;;;;5020457;28;20033;-68
2023/08/15 03:39:51;;;;;;;12.20;6.10;;;19.90;95.50;;;;;;5022434;28;20109;-67
2023/08/15 03:42:17;;;;;;;12.02;5.75;;;19.90;95.50;;;;;;5045408;28;20440;-68
2023/08/15 03:44:42;;;;;;;10.82;6.20;;;19.80;95.50;;;;;;5040846;28;20076;-68
2023/08/15 03:47:08;;;;;;;12.63;6.32;;;19.80;95.70;;;;;;5031425;28;20059;-68
2023/08/15 03:49:33;;;;;;;9.93;6.40;;;19.80;95.70;;;;;;5042659;28;20043;-68
2023/08/15 03:51:58;;;;;;;12.07;6.18;;;19.80;95.60;;;;;;5035246;28;20133;-67
2023/08/15 03:54:24;;;;;;;10.73;5.95;;;19.70;95.80;;;;;;5033136;28;20041;-67
2023/08/15 03:56:49;;;;;;;8.23;6.30;;;19.70;96.00;;;;;;5032531;28;20438;-67
2023/08/15 03:59:15;;;;;;;9.48;5.82;;;19.70;96.00;;;;;;5028048;28;20056;-67
2023/08/15 04:01:40;;;;;;;15.60;6.57;;;19.70;96.00;;;;;;5040562;28;20111;-67
2023/08/15 04:04:07;;;;;;;9.95;6.60;;;19.70;96.10;;;;;;5039713;28;20586;-65
2023/08/15 04:06:32;;;;;;;11.25;5.60;;;19.60;96.00;;;;;;5036117;28;20593;-65
2023/08/15 04:08:58;;;;;;;9.18;5.90;;;19.60;96.00;;;;;;5031080;28;20052;-64
2023/08/15 04:11:23;;;;;;;10.57;6.65;;;19.60;96.00;;;;;;5034839;28;20037;-65
2023/08/15 04:13:49;;;;;;;12.27;7.13;;;19.60;96.00;;;;;;5036612;28;20520;-65
2023/08/15 04:16:15;;;;;;;11.10;6.53;;;19.60;96.10;;;;;;5045305;28;20037;-64
2023/08/15 04:18:40;;;;;;;10.10;6.47;;;19.60;96.10;;;;;;5030944;28;20057;-64
2023/08/15 04:21:06;;;;;;;12.35;6.75;;;19.60;96.20;;;;;;5024033;28;20093;-65
2023/08/15 04:23:31;;;;;;;10.18;5.75;;;19.50;96.30;;;;;;5028867;28;20029;-65
2023/08/15 04:25:57;;;;;;;10.63;6.35;;;19.50;96.20;;;;;;5026886;28;20143;-65
2023/08/15 04:28:22;;;;;;;12.13;6.75;;;19.50;96.30;;;;;;5026418;28;20090;-66
2023/08/15 04:30:48;;;;;;;9.18;6.75;;;19.40;96.40;;;;;;5022904;28;20065;-66
2023/08/15 04:33:14;;;;;;;10.23;6.60;;;19.40;96.50;;;;;;5034349;28;20029;-66
2023/08/15 04:35:39;;;;;;;12.38;7.32;;;19.40;96.50;;;;;;5027771;28;20029;-66
2023/08/15 04:38:05;;;;;;;11.63;6.97;;;19.50;96.50;;;;;;5023264;28;20489;-66
2023/08/15 04:40:33;;;;;;;13.80;7.35;;;19.50;96.40;;;;;;5024255;28;20389;-66
2023/08/15 04:42:59;;;;;;;12.07;6.40;;;19.50;96.40;;;;;;5021587;28;20026;-66
2023/08/15 04:45:24;;;;;;;10.25;6.05;;;19.60;96.30;;;;;;5030611;28;20026;-66
2023/08/15 04:47:50;;;;;;;9.90;7.03;;;19.60;96.20;;;;;;5021280;28;20044;-67
2023/08/15 04:50:16;;;;;;;8.20;5.93;;;19.70;96.10;;;;;;5025034;28;20034;-65
2023/08/15 04:52:41;;;;;;;9.32;5.88;;;19.80;96.00;;;;;;5019157;28;20037;-66
2023/08/15 04:55:10;;;;;;;11.38;5.60;;;19.80;95.80;;;;;;5032104;28;20036;-66
2023/08/15 04:57:36;;;;;;;9.68;5.95;;;20.00;95.70;;;;;;5020694;28;20438;-67
2023/08/15 05:00:06;;;;;;;12.15;5.30;;;20.00;95.50;;;;;;5019927;28;20041;-66
2023/08/15 05:02:31;;;;;;;10.32;6.18;;;20.00;95.50;;;;;;5030283;28;20072;-65
2023/08/15 05:04:57;;;;;;;10.52;6.28;;;20.10;95.30;;;;;;5023603;28;20068;-67
2023/08/15 05:07:22;;;;;;;8.13;5.30;;;20.10;95.10;;;;;;5024730;28;20398;-66
2023/08/15 05:09:47;;;;;;;8.00;4.88;;;20.20;94.90;;;;;;5017816;28;20034;-66
2023/08/15 05:12:13;;;;;;;10.13;4.88;;;20.40;94.60;;;;;;5021951;28;20036;-66
2023/08/15 05:14:38;;;;;;;9.52;4.95;;;20.50;94.30;;;;;;5024245;28;20128;-69
2023/08/15 05:17:04;;;;;;;9.85;4.80;;;20.50;93.90;;;;;;5025033;28;20465;-69
2023/08/15 05:19:29;;;;;;;10.00;4.78;;;20.60;93.90;;;;;;5025608;28;20041;-68
2023/08/15 05:21:56;;;;;;;7.85;4.25;;;20.70;93.40;;;;;;5017157;28;20115;-68
2023/08/15 05:24:24;;;;;;;10.02;4.60;;;20.80;93.10;;;;;;5024803;28;20542;-68
2023/08/15 05:26:49;;;;;;;7.60;4.22;;;20.80;92.80;;;;;;5031817;28;20116;-68
2023/08/15 05:29:15;;;;;;;6.80;4.35;;;21.00;92.70;;;;;;5021059;28;20195;-68
2023/08/15 05:31:40;;;;;;;8.23;4.35;;;21.00;92.30;;;;;;5023965;28;20030;-68
2023/08/15 05:34:06;;;;;;;6.85;4.07;;;21.00;92.40;;;;;;5020456;28;20666;-68
2023/08/15 05:36:31;;;;;;;7.70;4.07;;;21.10;91.90;;;;;;5019542;28;20034;-68
2023/08/15 05:38:57;;;;;;;7.95;4.20;;;21.20;91.90;;;;;;5024924;28;20083;-69
2023/08/15 05:41:22;;;;;;;7.07;4.35;;;21.30;91.80;;;;;;5019474;28;20042;-69
2023/08/15 05:43:48;;;;;;;7.43;4.40;;;21.30;91.50;;;;;;5021418;28;20474;-67
2023/08/15 05:46:13;;;;;;;7.72;3.75;;;21.30;91.50;;;;;;5029323;28;20037;-67
2023/08/15 05:48:38;;;;;;;6.43;4.22;;;21.30;91.50;;;;;;5026359;28;20033;-67
2023/08/15 05:51:04;;;;;;;6.57;3.45;;;21.20;91.40;;;;;;5029411;28;20037;-67
2023/08/15 05:53:30;;;;;;;9.15;4.18;;;21.20;91.50;;;;;;5016854;28;20580;-67
2023/08/15 05:55:56;;;;;;;6.78;3.88;;;21.20;91.70;;;;;;5019056;28;20041;-66
2023/08/15 05:58:21;;;;;;;7.22;4.50;;;21.20;91.90;;;;;;5027288;28;20033;-67
2023/08/15 06:00:47;;;;;;;5.82;3.67;;;21.10;92.00;;;;;;5025165;28;20045;-68
2023/08/15 06:03:12;;;;;;;9.05;4.07;;;21.10;91.90;;;;;;5021247;28;20386;-66
2023/08/15 06:05:37;;;;;;;8.55;4.32;;;21.10;92.00;;;;;;5023288;28;20438;-68
2023/08/15 06:08:03;;;;;;;6.50;4.18;;;21.20;92.10;;;;;;5024069;28;20041;-66
2023/08/15 06:10:29;;;;;;;7.40;4.50;;;21.20;92.10;;;;;;5026723;28;20029;-66
2023/08/15 06:12:54;;;;;;;8.57;5.57;;;21.30;92.10;;;;;;5026111;28;20064;-66
2023/08/15 06:15:20;;;;;;;8.85;4.03;;;21.30;92.00;;;;;;5028149;28;20030;-66
2023/08/15 06:17:45;;;;;;;11.00;4.50;;;21.40;91.90;;;;;;5029761;28;20042;-66
2023/08/15 06:20:11;;;;;;;8.70;4.03;;;21.50;91.90;;;;;;5029722;28;20026;-66
2023/08/15 06:22:36;;;;;;;7.07;4.20;;;21.60;91.90;;;;;;5019213;28;20041;-66
2023/08/15 06:25:02;;;;;;;8.73;4.25;;;21.70;91.80;;;;;;5027296;28;20053;-66
2023/08/15 06:27:28;;;;;;;8.10;3.83;;;21.70;91.20;;;;;;5047129;28;20021;-67
2023/08/15 06:29:53;;;;;;;5.40;3.30;;;21.80;90.90;;;;;;5027429;28;20029;-67
2023/08/15 06:32:29;;;;;;;8.77;3.85;;;21.90;91.00;;;;;;5036376;28;20072;-67
2023/08/15 06:34:55;;;;;;;9.98;3.80;;;21.90;90.40;;;;;;5026850;28;20030;-69
2023/08/15 06:37:20;;;;;;;7.13;4.03;;;22.00;90.80;;;;;;5025623;28;20026;-67
2023/08/15 06:39:46;;;;;;;7.82;4.03;;;22.00;90.60;;;;;;5022098;28;20397;-68
2023/08/15 06:42:11;;;;;;;11.05;4.20;;;22.00;90.40;;;;;;5029753;28;20407;-66
2023/08/15 06:44:37;;;;;;;6.18;3.50;;;22.00;90.70;;;;;;5030430;28;20032;-68
2023/08/15 06:47:03;;;;;;;7.32;3.97;;;22.00;90.10;;;;;;5021695;28;20034;-67
2023/08/15 06:49:28;;;;;;;11.50;4.00;;;22.10;90.60;;;;;;5026616;28;20034;-67
2023/08/15 06:51:54;;;;;;;8.70;3.90;;;22.20;90.30;;;;;;5027338;28;20414;-67
2023/08/15 06:54:19;;;;;;;6.43;4.10;;;22.10;90.20;;;;;;5029110;28;20116;-68
2023/08/15 06:56:44;;;;;;;6.53;3.72;;;22.20;90.30;;;;;;5028684;28;20032;-67
2023/08/15 06:59:10;;;;;;;8.52;4.25;;;22.20;89.60;;;;;;5038427;28;20397;-67
2023/08/15 07:01:35;;;;;;;7.97;4.22;;;22.10;89.90;;;;;;5025144;28;20033;-68
2023/08/15 07:04:01;;;;;;;6.57;3.63;;;22.00;90.30;;;;;;5017783;28;20026;-67
2023/08/15 07:06:26;;;;;;;6.72;3.75;;;22.00;90.20;;;;;;5020116;28;20041;-68
2023/08/15 07:08:52;;;;;;;7.45;3.75;;;21.90;90.60;;;;;;5027952;28;20041;-67
2023/08/15 07:11:18;;;;;;;10.52;4.20;;;21.90;90.70;;;;;;5038292;28;20044;-66
2023/08/15 07:13:43;;;;;;;7.32;3.80;;;21.70;90.80;;;;;;5028098;28;20029;-69
2023/08/15 07:16:09;;;;;;;8.77;4.00;;;21.60;91.20;;;;;;5016618;28;20040;-66
2023/08/15 07:18:35;;;;;;;6.53;3.65;;;21.60;91.50;;;;;;5028416;28;20091;-67
2023/08/15 07:21:02;;;;;;;8.55;4.47;;;21.60;91.80;;;;;;5021704;28;20025;-69
2023/08/15 07:23:27;;;;;;;6.85;3.75;;;21.50;91.70;;;;;;5027826;28;20489;-68
2023/08/15 07:25:53;;;;;;;7.00;3.92;;;21.50;91.80;;;;;;5019674;28;20041;-66
2023/08/15 07:28:18;;;;;;;7.30;4.57;;;21.50;92.20;;;;;;5023795;28;20446;-69
2023/08/15 07:30:45;;;;;;;8.05;4.70;;;21.50;92.10;;;;;;5027203;28;20124;-69
2023/08/15 07:33:12;;;;;;;8.43;4.28;;;21.40;92.20;;;;;;5024393;28;20416;-66
2023/08/15 07:35:38;;;;;;;8.00;4.50;;;21.30;92.60;;;;;;5026818;28;20056;-67
2023/08/15 07:38:03;;;;;;;6.45;4.53;;;21.30;92.90;;;;;;5023806;28;20467;-72
2023/08/15 07:40:29;;;;;;;8.50;4.97;;;21.10;93.30;;;;;;5025867;28;20038;-66
2023/08/15 07:42:55;;;;;;;9.50;4.85;;;21.00;93.70;;;;;;5027125;28;20029;-68
2023/08/15 07:45:24;;;;;;;7.57;4.80;;;21.00;94.20;;;;;;5021416;28;20144;-74
2023/08/15 07:47:53;;;;;;;11.25;5.35;;;20.90;94.60;;;;;;5016680;28;20034;-70
2023/08/15 07:50:25;;;;;;;9.23;5.10;;;20.80;94.90;;;;;;5025609;28;20026;-66
2023/08/15 07:52:52;;;;;;;11.45;5.70;;;20.70;95.40;;;;;;5011949;28;20038;-66
2023/08/15 07:55:18;;;;;;;10.95;5.90;;;20.60;96.10;;;;;;5013871;28;20063;-67
2023/08/15 07:57:44;;;;;;;8.68;5.97;;;20.50;96.30;;;;;;5022036;28;20072;-68
2023/08/15 08:00:10;;;;;;;13.10;5.95;;;20.50;96.70;;;;;;5019862;28;20099;-68
2023/08/15 08:02:36;;;;;;;11.65;6.40;;;20.30;97.10;;;;;;5019211;28;20040;-66
2023/08/15 08:05:03;;;;;;;12.35;6.93;;;20.30;97.40;;;;;;5027460;28;20459;-68
2023/08/15 08:07:31;;;;;;;9.90;7.13;;;20.20;97.60;;;;;;5021685;28;20119;-67
2023/08/15 08:09:57;;;;;;;11.82;7.30;;;20.20;97.80;;;;;;5021806;28;20064;-68
2023/08/15 08:12:22;;;;;;;12.18;7.80;;;20.20;98.00;;;;;;5023788;28;20029;-67
2023/08/15 08:14:48;;;;;;;14.05;7.95;;;20.20;98.00;;;;;;5027335;28;20041;-68
2023/08/15 08:17:13;;;;;;;12.38;8.90;;;20.20;98.20;;;;;;5023745;28;20116;-66
2023/08/15 08:19:39;;;;;;;11.70;8.00;;;20.20;98.30;;;;;;5031770;28;20037;-67
2023/08/15 08:22:04;;;;;;;14.10;8.52;;;20.30;98.20;;;;;;5022005;28;20385;-67
2023/08/15 08:24:30;;;;;;;12.40;8.70;;;20.30;98.20;;;;;;5027517;28;20105;-67
2023/08/15 08:26:55;;;;;;;11.80;8.55;;;20.40;98.30;;;;;;5028355;28;20037;-67
2023/08/15 08:29:20;;;;;;;13.63;8.93;;;20.40;98.40;;;;;;5013069;28;20479;-68
2023/08/15 08:31:46;;;;;;;13.60;8.85;;;20.50;98.50;;;;;;5022904;28;20056;-66
2023/08/15 08:34:14;;;;;;;12.65;8.43;;;20.50;98.60;;;;;;5025748;28;20037;-66
2023/08/15 08:36:43;;;;;;;17.10;9.30;;;20.60;98.60;;;;;;5014394;28;20557;-70
2023/08/15 08:39:09;;;;;;;12.98;9.13;;;20.60;98.60;;;;;;5020307;28;20042;-70
2023/08/15 08:41:39;;;;;;;12.80;8.90;;;20.60;98.50;;;;;;5026023;28;20441;-69
2023/08/15 08:44:05;;;;;;;13.38;9.32;;;20.80;98.40;;;;;;5019041;28;21059;-68
2023/08/15 08:46:31;;;;;;;14.38;9.20;;;21.00;98.40;;;;;;5021570;28;20061;-68
2023/08/15 08:48:58;;;;;;;13.18;9.00;;;21.30;98.50;;;;;;5021426;28;20381;-68
2023/08/15 08:51:24;;;;;;;15.23;8.93;;;21.40;98.00;;;;;;5020098;28;20545;-68
2023/08/15 08:53:50;;;;;;;12.90;8.40;;;21.60;98.00;;;;;;5031620;28;20215;-67
2023/08/15 08:56:22;;;;;;;11.70;7.95;;;21.80;97.90;;;;;;5024185;28;20532;-68
2023/08/15 08:58:59;;;;;;;11.73;7.78;;;21.60;96.90;;;;;;5030517;28;20098;-68
2023/08/15 09:01:29;;;;;;;12.65;7.35;;;21.90;96.70;;;;;;5027889;28;20041;-67
2023/08/15 09:03:55;;;;;;;11.70;7.15;;;22.00;96.70;;;;;;5027669;28;20094;-68
2023/08/15 09:06:22;;;;;;;11.07;7.00;;;22.00;96.60;;;;;;5020037;28;20112;-66
2023/08/15 09:08:48;;;;;;;10.70;6.50;;;22.30;96.80;;;;;;5015286;28;20398;-65
2023/08/15 09:11:13;;;;;;;11.15;6.43;;;22.40;96.10;;;;;;5017669;28;20033;-65
2023/08/15 09:13:51;;;;;;;9.43;6.18;;;22.50;95.80;;;;;;5019001;28;20410;-66
2023/08/15 09:16:17;;;;;;;9.57;5.60;;;22.60;95.80;;;;;;5015275;28;20163;-66
2023/08/15 09:18:42;;;;;;;8.27;5.35;;;22.60;95.70;;;;;;5020020;28;20191;-65
2023/08/15 09:21:08;;;;;;;8.77;5.82;;;22.70;95.10;;;;;;5024698;28;20135;-65
2023/08/15 09:23:34;;;;;;;7.88;5.43;;;22.70;94.80;;;;;;5023719;28;20041;-66
2023/08/15 09:26:14;;;;;;;8.70;5.22;;;22.70;94.60;;;;;;5020742;28;20041;-65
2023/08/15 09:28:41;;;;;;;9.15;5.45;;;22.80;95.40;;;;;;5022279;28;20029;-65
2023/08/15 09:31:08;;;;;;;8.50;5.63;;;22.90;94.80;;;;;;5024353;28;20128;-66
2023/08/15 09:33:35;;;;;;;8.55;5.18;;;23.10;94.90;;;;;;5028529;28;20029;-65
2023/08/15 09:36:03;;;;;;;8.23;4.80;;;23.50;95.20;;;;;;5035132;28;20034;-66
2023/08/15 09:38:29;;;;;;;8.20;5.20;;;23.70;93.60;;;;;;5025781;28;20036;-66
2023/08/15 09:40:55;;;;;;;7.68;4.47;;;24.00;92.30;;;;;;5024762;28;20030;-65
2023/08/15 09:43:21;;;;;;;8.13;4.15;;;24.10;92.10;;;;;;5032272;28;20028;-65
2023/08/15 09:45:47;;;;;;;6.38;3.75;;;24.00;90.10;;;;;;5026673;28;20385;-65
2023/08/15 09:48:13;;;;;;;6.00;3.60;;;24.00;90.50;;;;;;5026971;28;20564;-65
2023/08/15 09:50:41;;;;;;;8.02;4.00;;;24.10;89.70;;;;;;5026374;28;20057;-65
2023/08/15 09:53:07;;;;;;;7.90;3.65;;;24.30;89.30;;;;;;5022939;28;20533;-66
2023/08/15 09:55:35;;;;;;;8.00;3.33;;;24.00;89.60;;;;;;5023180;28;20029;-64
2023/08/15 09:58:00;;;;;;;5.68;3.60;;;24.00;90.00;;;;;;5027813;28;20037;-65
2023/08/15 10:00:27;;;;;;;5.60;3.22;;;24.10;89.20;;;;;;5023826;28;20042;-65
2023/08/15 10:02:59;;;;;;;6.13;3.72;;;24.60;88.50;;;;;;5032191;28;20029;-66
2023/08/15 10:05:31;;;;;;;6.60;3.60;;;25.00;87.80;;;;;;5035281;28;20351;-65
2023/08/15 10:07:57;;;;;;;5.90;3.92;;;25.20;87.30;;;;;;5032772;28;20041;-65
2023/08/15 10:10:24;;;;;;;6.50;3.90;;;25.00;86.70;;;;;;5027193;28;20030;-66
2023/08/15 10:12:51;;;;;;;8.82;4.65;;;24.90;88.00;;;;;;5033942;28;20127;-66
2023/08/15 10:15:17;;;;;;;5.55;3.83;;;24.50;87.30;;;;;;5032959;28;20040;-67
2023/08/15 10:17:43;;;;;;;7.55;4.57;;;24.70;87.70;;;;;;5030666;28;20048;-66
2023/08/15 10:20:15;;;;;;;6.28;4.68;;;24.80;88.10;;;;;;5036533;28;20120;-66
2023/08/15 10:22:41;;;;;;;6.82;4.55;;;24.50;87.60;;;;;;5029143;28;20029;-66
2023/08/15 10:25:22;;;;;;;11.80;5.50;;;24.10;89.20;;;;;;5022884;28;20074;-66
2023/08/15 10:27:49;;;;;;;8.77;5.30;;;24.00;89.90;;;;;;5017000;28;20034;-68
2023/08/15 10:30:28;;;;;;;9.07;5.65;;;24.10;89.20;;;;;;5033819;28;20029;-67
2023/08/15 10:32:54;;;;;;;7.03;4.93;;;24.10;89.20;;;;;;5029263;28;20030;-65
2023/08/15 10:35:27;;;;;;;7.53;4.85;;;24.40;89.10;;;;;;5024834;28;20394;-65
2023/08/15 10:37:56;;;;;;;8.68;4.65;;;24.40;88.00;;;;;;5028022;28;20041;-65
2023/08/15 10:40:27;;;;;;;8.70;5.00;;;24.50;87.90;;;;;;5019707;28;20107;-66
2023/08/15 10:43:01;;;;;;;8.90;4.57;;;24.40;86.80;;;;;;5032936;28;20029;-65
2023/08/15 10:45:30;;;;;;;10.00;4.63;;;25.00;87.10;;;;;;5023000;28;20068;-65
2023/08/15 10:47:57;;;;;;;6.95;4.03;;;25.10;87.10;;;;;;5035502;28;20063;-65
2023/08/15 10:50:23;;;;;;;8.65;4.57;;;25.10;85.80;;;;;;5028861;28;20040;-65
2023/08/15 10:52:58;;;;;;;11.90;4.50;;;24.90;85.80;;;;;;5030359;28;20082;-66
2023/08/15 10:55:27;;;;;;;6.65;4.22;;;25.20;84.80;;;;;;5031306;28;20045;-66
2023/08/15 10:57:55;;;;;;;9.25;4.68;;;25.40;83.90;;;;;;5033799;28;20080;-66
2023/08/15 11:00:22;;;;;;;9.38;4.65;;;25.60;83.70;;;;;;5027363;28;20025;-66
2023/08/15 11:02:51;;;;;;;9.43;4.80;;;25.70;83.80;;;;;;5026565;28;20425;-66
2023/08/15 11:05:19;;;;;;;9.02;5.05;;;25.50;82.90;;;;;;5025139;28;20080;-67
2023/08/15 11:07:44;;;;;;;9.48;4.32;;;25.80;81.60;;;;;;5022534;28;20029;-66
2023/08/15 11:10:12;;;;;;;10.65;5.15;;;26.20;81.40;;;;;;5022497;28;20029;-67
2023/08/15 11:12:37;;;;;;;6.07;4.50;;;26.00;79.40;;;;;;5036360;28;20029;-66
2023/08/15 11:15:03;;;;;;;11.70;4.55;;;25.70;80.50;;;;;;5028652;28;20041;-66
2023/08/15 11:17:29;;;;;;;7.22;4.63;;;26.20;81.10;;;;;;5017697;28;20456;-65
2023/08/15 11:19:54;;;;;;;6.65;4.72;;;26.80;79.70;;;;;;5020409;28;20072;-66
2023/08/15 11:22:20;;;;;;;8.18;4.68;;;26.70;78.00;;;;;;5028427;28;20025;-67
2023/08/15 11:24:50;;;;;;;7.15;4.45;;;27.20;77.10;;;;;;5030693;28;20063;-67
2023/08/15 11:27:16;;;;;;;;;;;27.30;76.20;;;;;;5025104;28;20029;-66
2023/08/15 11:29:41;;;;;;;7.25;4.25;;;27.10;76.90;;;;;;5022897;28;19913;-68
2023/08/15 11:32:08;;;;;;;7.55;4.40;;;27.00;77.90;;;;;;5027140;28;20068;-68
2023/08/15 11:34:37;;;;;;;7.57;4.38;;;26.40;77.90;;;;;;5032609;28;20032;-66
2023/08/15 11:37:04;;;;;;;8.73;4.53;;;26.20;79.10;;;;;;5019012;28;20061;-65
2023/08/15 11:39:29;;;;;;;8.07;4.60;;;25.50;80.50;;;;;;5024260;28;20034;-68
2023/08/15 11:41:55;;;;;;;10.63;5.80;;;25.10;81.80;;;;;;5023209;28;20473;-65
2023/08/15 11:44:21;;;;;;;8.77;5.82;;;24.60;83.50;;;;;;5032841;28;20116;-65
2023/08/15 11:46:47;;;;;;;18.50;7.60;;;24.70;83.10;;;;;;5031894;28;20434;-66
2023/08/15 11:49:20;;;;;;;11.60;7.15;;;25.20;81.30;;;;;;5032514;28;20033;-66
2023/08/15 11:51:46;;;;;;;12.90;5.97;;;25.80;77.60;;;;;;5034552;28;20037;-65
2023/08/15 11:54:12;;;;;;;10.32;5.88;;;26.00;73.00;;;;;;5028256;28;20113;-66
2023/08/15 11:56:51;;;;;;;8.93;5.75;;;26.00;72.20;;;;;;5023504;28;20060;-65
2023/08/15 11:59:22;;;;;;;8.93;6.07;;;26.50;72.50;;;;;;5024656;28;20554;-66
2023/08/15 12:01:49;;;;;;;10.02;6.55;;;26.60;70.40;;;;;;5032328;28;20040;-65
2023/08/15 12:04:16;;;;;;;12.07;7.22;;;26.50;71.20;;;;;;5026547;28;20092;-66
2023/08/15 12:06:41;;;;;;;12.63;5.82;;;26.70;72.20;;;;;;5034498;28;20065;-65
2023/08/15 12:09:07;;;;;;;11.80;6.35;;;27.10;72.70;;;;;;5032156;28;20088;-66
2023/08/15 12:11:36;;;;;;;11.60;6.28;;;27.30;70.80;;;;;;5029114;28;20029;-65
2023/08/15 12:14:03;;;;;;;7.28;5.20;;;26.90;71.30;;;;;;5031110;28;20026;-66
2023/08/15 12:16:30;;;;;;;12.93;5.63;;;26.60;72.50;;;;;;5035826;28;20025;-68
2023/08/15 12:18:55;;;;;;;10.75;5.07;;;26.40;72.00;;;;;;5024321;28;20030;-65
2023/08/15 12:21:21;;;;;;;9.05;4.38;;;26.70;71.30;;;;;;5037835;28;20082;-67
2023/08/15 12:23:46;;;;;;;8.25;4.15;;;27.20;66.50;;;;;;5031773;28;20486;-67
2023/08/15 12:26:11;;;;;;;10.93;4.72;;;26.70;66.90;;;;;;5029147;28;20033;-66
2023/08/15 12:28:37;;;;;;;10.18;4.28;;;26.20;68.70;;;;;;5023174;28;20478;-67
2023/08/15 12:31:03;;;;;;;11.68;4.78;;;26.00;69.70;;;;;;5027916;28;20040;-65
2023/08/15 12:33:33;;;;;;;9.98;4.97;;;25.70;70.40;;;;;;5022804;28;20545;-64
2023/08/15 12:36:02;;;;;;;;;;;26.40;69.30;;;;;;5026080;28;20032;-65
2023/08/15 12:38:28;;;;;;;13.55;4.00;;;26.70;66.10;;;;;;5019614;28;19948;-66
2023/08/15 12:40:53;;;;;;;9.18;3.60;;;27.10;65.70;;;;;;5026543;28;20064;-67